Time;durP1;ratioP1;P1;durP2;ratioP2;P2;SDS_P1;SDS_P2;PMS_P1;PMS_P2;Temp;Humidity;BMP_temperature;BMP_pressure;BME280_temperature;BME280_humidity;BME280_pressure;Samples;Min_cycle;Max_cycle;Signal;HPM_P1;HPM_P2
2023/12/03 00:02:18;;;;;;;12.32;6.20;;;0.70;99.90;;;;;;4877890;29;20052;-73
2023/12/03 00:04:48;;;;;;;11.27;6.22;;;0.60;99.90;;;;;;4866264;29;20048;-74
2023/12/03 00:07:17;;;;;;;11.38;6.72;;;0.60;99.90;;;;;;4867676;29;21169;-75
2023/12/03 00:09:46;;;;;;;11.73;5.22;;;0.60;99.90;;;;;;4867312;29;22627;-74
2023/12/03 00:12:18;;;;;;;11.20;6.72;;;0.60;99.90;;;;;;4872621;29;20049;-75
2023/12/03 00:14:49;;;;;;;11.60;6.15;;;0.60;99.90;;;;;;4876499;29;20400;-74
2023/12/03 00:17:21;;;;;;;12.35;6.72;;;0.60;99.90;;;;;;4886107;29;20096;-75
2023/12/03 00:19:53;;;;;;;;;;;0.60;99.90;;;;;;4871137;29;20191;-74
2023/12/03 00:22:24;;;;;;;11.18;6.50;;;0.60;99.90;;;;;;4871157;29;20160;-75
2023/12/03 00:24:56;;;;;;;11.52;6.22;;;0.60;99.90;;;;;;4888765;29;20060;-76
2023/12/03 00:27:29;;;;;;;11.82;6.80;;;0.70;99.90;;;;;;4872167;29;20060;-74
2023/12/03 00:30:00;;;;;;;11.75;6.05;;;0.70;99.90;;;;;;4871087;29;20060;-74
2023/12/03 00:32:29;;;;;;;11.73;6.97;;;0.70;99.90;;;;;;4880102;29;20063;-73
2023/12/03 00:34:59;;;;;;;11.02;5.80;;;0.70;99.90;;;;;;4895101;29;20432;-76
2023/12/03 00:37:29;;;;;;;13.23;6.88;;;0.70;99.90;;;;;;4888292;29;20063;-73
2023/12/03 00:39:58;;;;;;;12.25;6.03;;;0.60;99.90;;;;;;4883592;29;20052;-73
2023/12/03 00:42:27;;;;;;;12.57;6.40;;;0.60;99.90;;;;;;4866945;29;20040;-74
2023/12/03 00:44:56;;;;;;;11.77;5.75;;;0.60;99.90;;;;;;4884455;29;20054;-73
2023/12/03 00:47:25;;;;;;;9.20;6.07;;;0.70;99.90;;;;;;4887240;29;20079;-76
2023/12/03 00:49:53;;;;;;;10.93;5.72;;;0.60;99.90;;;;;;4876188;29;20068;-73
2023/12/03 00:52:21;;;;;;;11.65;4.82;;;0.70;99.90;;;;;;4884709;29;20508;-74
2023/12/03 00:54:51;;;;;;;12.45;5.75;;;0.70;99.90;;;;;;4874677;29;20102;-73
2023/12/03 00:57:20;;;;;;;11.30;5.45;;;0.60;99.90;;;;;;4872548;29;20056;-71
2023/12/03 00:59:51;;;;;;;12.88;6.70;;;0.60;99.90;;;;;;4883438;29;20532;-76
2023/12/03 01:02:20;;;;;;;9.40;4.88;;;0.60;99.90;;;;;;4877525;29;20076;-75
2023/12/03 01:04:49;;;;;;;11.70;6.07;;;1.40;99.90;;;;;;4880460;29;20049;-75
2023/12/03 01:07:22;;;;;;;9.63;4.13;;;0.70;99.90;;;;;;4865555;29;20063;-74
2023/12/03 01:09:53;;;;;;;;;;;0.70;99.90;;;;;;4869111;29;20051;-73
2023/12/03 01:12:24;;;;;;;11.52;5.32;;;0.70;99.90;;;;;;4868968;29;20578;-75
2023/12/03 01:14:58;;;;;;;9.13;3.97;;;0.60;99.90;;;;;;4864454;29;20056;-75
2023/12/03 01:17:26;;;;;;;8.80;4.70;;;0.60;99.90;;;;;;4879775;29;20078;-76
2023/12/03 01:19:55;;;;;;;8.00;4.40;;;0.60;99.90;;;;;;4833910;29;20840;-75
2023/12/03 01:22:24;;;;;;;10.55;4.65;;;0.70;99.90;;;;;;4881755;29;21785;-72
2023/12/03 01:24:53;;;;;;;10.85;5.07;;;0.70;99.90;;;;;;4862583;29;20120;-77
2023/12/03 01:27:22;;;;;;;9.77;4.20;;;0.60;99.90;;;;;;4878220;29;20072;-71
2023/12/03 01:29:53;;;;;;;7.65;3.28;;;0.60;99.90;;;;;;4863249;29;20092;-75
2023/12/03 01:32:23;;;;;;;9.25;4.82;;;0.60;99.90;;;;;;4879349;29;20056;-73
2023/12/03 01:34:52;;;;;;;8.93;4.85;;;0.60;99.90;;;;;;4876992;29;20056;-75
2023/12/03 01:37:21;;;;;;;9.32;4.88;;;0.50;99.90;;;;;;4861697;29;20063;-73
2023/12/03 01:39:49;;;;;;;11.18;4.97;;;0.60;99.90;;;;;;4863600;29;20123;-75
2023/12/03 01:42:18;;;;;;;9.73;4.88;;;0.50;99.90;;;;;;4877510;29;20421;-75
2023/12/03 01:44:46;;;;;;;10.48;5.10;;;0.50;99.90;;;;;;4865716;29;20535;-73
2023/12/03 01:47:16;;;;;;;9.65;5.28;;;0.50;99.90;;;;;;4862226;29;20048;-74
2023/12/03 01:50:05;;;;;;;8.48;4.43;;;0.50;99.90;;;;;;4863659;29;20057;-72
2023/12/03 01:52:34;;;;;;;7.88;4.25;;;0.50;99.90;;;;;;4862143;29;20044;-71
2023/12/03 01:55:04;;;;;;;9.68;4.65;;;0.50;99.90;;;;;;4874334;29;20056;-73
2023/12/03 01:57:32;;;;;;;12.45;4.85;;;0.50;99.90;;;;;;4861157;29;20129;-73
2023/12/03 02:00:02;;;;;;;7.55;3.72;;;0.50;99.90;;;;;;4874199;29;20068;-73
2023/12/03 02:02:39;;;;;;;10.15;4.20;;;0.50;99.90;;;;;;4862833;29;20053;-72
2023/12/03 02:05:10;;;;;;;8.48;4.93;;;0.50;99.90;;;;;;4883830;29;20128;-73
2023/12/03 02:07:38;;;;;;;9.40;4.50;;;0.50;99.90;;;;;;4872507;29;20060;-76
2023/12/03 02:10:08;;;;;;;9.20;5.40;;;0.50;99.90;;;;;;4882081;29;20060;-75
2023/12/03 02:12:37;;;;;;;11.63;5.72;;;0.50;99.90;;;;;;4876781;29;20040;-76
2023/12/03 02:15:08;;;;;;;12.98;4.63;;;0.40;99.90;;;;;;4882547;29;20044;-77
2023/12/03 02:17:37;;;;;;;10.13;5.15;;;-0.90;99.90;;;;;;4893225;29;20077;-74
2023/12/03 02:20:07;;;;;;;11.68;4.60;;;0.50;99.90;;;;;;4873808;29;20044;-74
2023/12/03 02:22:41;;;;;;;8.15;3.85;;;0.50;99.90;;;;;;4886361;29;20120;-74
2023/12/03 02:25:10;;;;;;;12.27;5.55;;;0.50;99.90;;;;;;4879554;29;20176;-74
2023/12/03 02:27:38;;;;;;;9.77;5.00;;;0.40;99.90;;;;;;4875849;29;20060;-74
2023/12/03 02:30:08;;;;;;;9.45;4.93;;;0.40;99.90;;;;;;4873906;29;20064;-76
2023/12/03 02:32:37;;;;;;;8.18;5.18;;;0.40;99.90;;;;;;4866362;29;20048;-75
2023/12/03 02:35:06;;;;;;;11.40;5.03;;;0.40;99.90;;;;;;4891275;29;20057;-75
2023/12/03 02:37:35;;;;;;;9.60;4.75;;;0.40;99.90;;;;;;4895316;29;20179;-74
2023/12/03 02:40:10;;;;;;;10.70;5.82;;;0.40;99.90;;;;;;5064799;23;20071;-77
2023/12/03 02:42:38;;;;;;;10.68;5.43;;;0.30;99.90;;;;;;4872197;29;22704;-76
2023/12/03 02:45:08;;;;;;;7.63;3.83;;;0.30;99.90;;;;;;4888150;29;20064;-75
2023/12/03 02:47:37;;;;;;;11.00;4.78;;;0.30;99.90;;;;;;4948537;23;20128;-75
2023/12/03 02:50:07;;;;;;;10.23;4.47;;;-1.20;99.90;;;;;;4893494;29;20108;-75
2023/12/03 02:52:36;;;;;;;10.88;5.40;;;0.30;99.90;;;;;;4903378;29;20052;-76
2023/12/03 02:55:07;;;;;;;10.00;5.03;;;0.40;99.90;;;;;;4887469;29;20036;-76
2023/12/03 02:57:36;;;;;;;10.95;6.18;;;0.30;99.90;;;;;;5012136;23;20068;-76
2023/12/03 03:00:06;;;;;;;11.75;6.32;;;0.30;99.90;;;;;;4911843;28;20048;-74
2023/12/03 03:02:35;;;;;;;10.30;5.47;;;0.30;99.90;;;;;;5233392;23;20061;-76
2023/12/03 03:05:06;;;;;;;11.15;5.35;;;0.60;99.90;;;;;;4885345;29;20207;-75
2023/12/03 03:07:35;;;;;;;10.63;6.50;;;0.40;99.90;;;;;;4880874;29;20096;-77
2023/12/03 03:10:04;;;;;;;10.13;4.20;;;0.30;99.90;;;;;;4912768;29;20056;-77
2023/12/03 03:12:34;;;;;;;9.23;4.90;;;0.30;99.90;;;;;;4898025;29;20060;-76
2023/12/03 03:15:05;;;;;;;7.63;4.20;;;0.30;99.90;;;;;;4881806;29;20036;-76
2023/12/03 03:17:37;;;;;;;12.38;4.90;;;1.00;99.90;;;;;;4886218;29;20682;-75
2023/12/03 03:20:07;;;;;;;10.23;5.10;;;0.20;99.90;;;;;;5312050;23;20044;-75
2023/12/03 03:22:36;;;;;;;8.80;4.85;;;0.20;99.90;;;;;;4913449;29;20051;-75
2023/12/03 03:25:05;;;;;;;11.43;5.55;;;0.20;99.90;;;;;;4912697;28;22644;-75
2023/12/03 03:27:35;;;;;;;11.43;4.72;;;0.20;99.90;;;;;;4922794;28;20028;-76
2023/12/03 03:30:06;;;;;;;9.93;5.65;;;0.10;99.90;;;;;;4930228;28;20113;-76
2023/12/03 03:32:35;;;;;;;7.95;4.50;;;0.10;99.90;;;;;;4926081;28;21967;-77
2023/12/03 03:35:04;;;;;;;8.57;4.22;;;0.10;99.90;;;;;;4929931;28;20048;-76
2023/12/03 03:37:33;;;;;;;9.40;6.20;;;0.20;99.90;;;;;;4910830;29;20055;-74
2023/12/03 03:40:01;;;;;;;8.77;4.45;;;0.10;99.90;;;;;;4921235;29;20052;-75
2023/12/03 03:42:31;;;;;;;10.05;4.25;;;1.80;99.90;;;;;;4925322;29;22455;-74
2023/12/03 03:45:01;;;;;;;8.98;4.88;;;1.90;99.90;;;;;;5240211;23;20064;-75
2023/12/03 03:47:29;;;;;;;9.80;4.18;;;0.30;99.90;;;;;;4933438;28;20043;-76
2023/12/03 03:49:58;;;;;;;11.07;5.00;;;0.00;99.90;;;;;;5011069;23;20098;-76
2023/12/03 03:52:46;;;;;;;8.45;4.70;;;1.10;99.90;;;;;;5081922;23;22313;-76
2023/12/03 03:58:28;;;;;;;9.35;6.32;;;0.00;99.90;;;;;;4913652;23;20106;-77
2023/12/03 04:01:00;;;;;;;8.93;5.00;;;0.20;99.90;;;;;;4901417;29;20056;-76
2023/12/03 04:03:31;;;;;;;10.27;4.35;;;1.20;99.90;;;;;;4902235;29;20335;-75
2023/12/03 04:06:01;;;;;;;11.90;6.70;;;0.00;99.90;;;;;;4906674;28;20059;-75
2023/12/03 04:08:30;;;;;;;13.20;4.75;;;-0.10;99.90;;;;;;4907415;29;20104;-76
2023/12/03 04:10:58;;;;;;;15.20;6.28;;;-0.10;99.90;;;;;;4914191;29;20040;-77
2023/12/03 04:13:27;;;;;;;20.33;7.72;;;-0.10;99.90;;;;;;4893907;29;20485;-77
2023/12/03 04:15:55;;;;;;;10.48;5.63;;;-0.10;99.90;;;;;;4908720;28;20028;-75
2023/12/03 04:18:26;;;;;;;10.20;4.90;;;-0.10;99.90;;;;;;4895731;28;20075;-75
2023/12/03 04:20:54;;;;;;;11.93;5.13;;;-0.10;99.90;;;;;;4895653;28;20051;-75
2023/12/03 04:23:22;;;;;;;9.80;5.75;;;-0.10;99.90;;;;;;4881354;28;20075;-76
2023/12/03 04:25:51;;;;;;;9.00;4.75;;;-0.20;99.90;;;;;;4938533;28;20024;-77
2023/12/03 04:28:20;;;;;;;7.70;3.03;;;-0.20;99.90;;;;;;5233014;23;20576;-73
2023/12/03 04:30:50;;;;;;;10.77;4.35;;;-0.10;99.90;;;;;;4880273;29;20057;-76
2023/12/03 04:33:24;;;;;;;10.27;4.75;;;-0.10;99.90;;;;;;4891557;29;20061;-74
2023/12/03 04:35:58;;;;;;;10.65;4.38;;;-0.10;99.90;;;;;;4896127;29;20052;-74
2023/12/03 04:38:26;;;;;;;7.90;3.80;;;-0.10;99.90;;;;;;4884962;29;20428;-74
2023/12/03 04:40:58;;;;;;;8.88;4.32;;;0.40;99.90;;;;;;4875572;29;20049;-74
2023/12/03 04:43:27;;;;;;;8.82;4.03;;;-0.20;99.90;;;;;;4878049;29;20072;-75
2023/12/03 04:45:57;;;;;;;8.68;3.80;;;-0.20;99.90;;;;;;4877591;29;20252;-75
2023/12/03 04:48:28;;;;;;;6.72;3.50;;;-0.20;99.90;;;;;;4872286;29;20049;-75
2023/12/03 04:51:04;;;;;;;7.88;3.92;;;-0.20;99.90;;;;;;4863483;29;20060;-74
2023/12/03 04:53:34;;;;;;;9.02;4.93;;;-0.20;99.90;;;;;;4887973;29;20058;-73
2023/12/03 04:56:03;;;;;;;8.73;4.50;;;-0.30;99.90;;;;;;4861426;29;20048;-74
2023/12/03 04:58:34;;;;;;;10.30;3.65;;;-0.30;99.90;;;;;;4891236;29;20063;-74
2023/12/03 05:01:02;;;;;;;9.90;4.78;;;-0.20;99.90;;;;;;4867034;29;20065;-74
2023/12/03 05:03:39;;;;;;;7.30;3.45;;;-0.30;99.90;;;;;;4880954;29;20056;-72
2023/12/03 05:06:17;;;;;;;10.50;5.00;;;-0.30;99.90;;;;;;4878391;29;20826;-74
2023/12/03 05:08:49;;;;;;;11.00;5.32;;;-0.30;99.90;;;;;;4826836;29;20540;-74
2023/12/03 05:11:22;;;;;;;9.10;4.10;;;-0.30;99.90;;;;;;4897020;29;20059;-74
2023/12/03 05:13:50;;;;;;;;;;;-0.30;99.90;;;;;;4876895;29;20061;-76
2023/12/03 05:16:20;;;;;;;9.38;4.05;;;-0.40;99.90;;;;;;4874864;29;19931;-75
2023/12/03 05:18:59;;;;;;;9.13;4.65;;;-0.40;99.90;;;;;;4884961;29;20059;-73
2023/12/03 05:21:31;;;;;;;5.45;3.20;;;-0.40;99.90;;;;;;4875726;29;20543;-74
2023/12/03 05:24:04;;;;;;;10.05;4.75;;;-0.40;99.90;;;;;;4888419;29;20075;-75
2023/12/03 05:26:33;;;;;;;;;;;-0.40;99.90;;;;;;4880770;29;20527;-74
2023/12/03 05:29:13;;;;;;;10.45;4.50;;;-0.40;99.90;;;;;;4885709;29;20374;-72
2023/12/03 05:31:45;;;;;;;11.55;5.10;;;-0.40;99.90;;;;;;4867893;29;20123;-74
2023/12/03 05:34:18;;;;;;;10.18;4.45;;;-0.50;99.90;;;;;;4883941;29;20075;-74
2023/12/03 05:36:57;;;;;;;11.02;5.03;;;-0.50;99.90;;;;;;4885929;29;20101;-73
2023/12/03 05:39:26;;;;;;;13.18;5.72;;;-0.50;99.90;;;;;;4881158;29;20049;-74
2023/12/03 05:42:00;;;;;;;9.20;5.38;;;-0.50;99.90;;;;;;4877814;29;20151;-74
2023/12/03 05:44:30;;;;;;;11.02;5.05;;;-0.50;99.90;;;;;;4877679;29;20184;-73
2023/12/03 05:46:59;;;;;;;10.32;5.30;;;-0.50;99.90;;;;;;4886974;29;20728;-74
2023/12/03 05:49:31;;;;;;;9.90;4.07;;;-0.10;99.90;;;;;;4882213;29;20048;-74
2023/12/03 05:52:01;;;;;;;11.02;4.68;;;-0.50;99.90;;;;;;4902954;29;20068;-73
2023/12/03 05:54:30;;;;;;;8.43;4.97;;;-0.50;99.90;;;;;;4872995;29;20152;-75
2023/12/03 05:56:59;;;;;;;9.70;4.97;;;-0.60;99.90;;;;;;4875777;29;20052;-75
2023/12/03 05:59:59;;;;;;;8.23;3.20;;;-0.60;99.90;;;;;;4896224;29;20482;-74
2023/12/03 06:02:29;;;;;;;10.15;4.80;;;-0.20;99.90;;;;;;4890067;29;22344;-75
2023/12/03 06:05:05;;;;;;;9.60;3.97;;;-0.60;99.90;;;;;;4874190;29;20052;-74
2023/12/03 06:07:42;;;;;;;8.93;4.20;;;-0.70;99.90;;;;;;4879763;29;20049;-74
2023/12/03 06:10:09;;;;;;;11.65;5.50;;;-0.70;99.90;;;;;;4888537;29;20061;-74
2023/12/03 06:12:46;;;;;;;9.40;4.05;;;-0.70;99.90;;;;;;4876329;29;20144;-73
2023/12/03 06:15:17;;;;;;;11.32;5.38;;;-0.70;99.90;;;;;;4865853;29;22471;-74
2023/12/03 06:17:46;;;;;;;8.77;3.95;;;-0.70;99.90;;;;;;4881530;29;20441;-75
2023/12/03 06:20:16;;;;;;;9.10;3.75;;;-0.70;99.90;;;;;;4885614;29;20060;-73
2023/12/03 06:22:48;;;;;;;8.85;5.03;;;-0.70;99.90;;;;;;4862953;29;20060;-75
2023/12/03 06:25:26;;;;;;;8.52;3.13;;;-0.80;99.90;;;;;;4894107;29;20049;-73
2023/12/03 06:28:01;;;;;;;10.63;4.18;;;-0.80;99.90;;;;;;4866170;29;20136;-73
2023/12/03 06:30:30;;;;;;;9.40;4.75;;;-0.70;99.90;;;;;;4882441;29;20056;-74
2023/12/03 06:32:58;;;;;;;8.73;4.88;;;-0.80;99.90;;;;;;4893869;29;20063;-73
2023/12/03 06:35:29;;;;;;;12.93;5.82;;;-0.80;99.90;;;;;;4886763;29;20045;-75
2023/12/03 06:37:59;;;;;;;12.68;5.45;;;-0.80;99.90;;;;;;4901162;29;20063;-73
2023/12/03 06:40:28;;;;;;;11.32;5.50;;;-0.80;99.90;;;;;;4885121;29;20045;-74
2023/12/03 06:45:41;;;;;;;13.93;5.23;;;-0.80;99.90;;;;;;4880691;29;20049;-75
2023/12/03 06:48:09;;;;;;;11.68;4.55;;;-0.90;99.90;;;;;;4878617;29;20436;-78
2023/12/03 06:50:39;;;;;;;11.40;4.95;;;-0.90;99.90;;;;;;4873925;29;20041;-78
2023/12/03 06:53:11;;;;;;;10.43;4.57;;;-0.80;99.90;;;;;;4889149;29;21787;-78
2023/12/03 06:55:40;;;;;;;13.65;5.55;;;-0.80;99.90;;;;;;4891111;29;20048;-78
2023/12/03 06:58:08;;;;;;;16.23;6.15;;;-0.80;99.90;;;;;;4878326;29;20598;-78
2023/12/03 07:00:37;;;;;;;10.88;4.90;;;-0.70;99.90;;;;;;4885987;29;20170;-78
2023/12/03 07:03:05;;;;;;;11.50;4.25;;;-0.70;99.90;;;;;;4871750;29;20060;-79
2023/12/03 07:05:34;;;;;;;8.80;4.10;;;-0.80;99.90;;;;;;4885094;29;20087;-79
2023/12/03 07:08:06;;;;;;;12.93;4.60;;;-0.80;99.90;;;;;;4881227;29;20041;-79
2023/12/03 07:10:34;;;;;;;9.05;4.30;;;-1.00;99.90;;;;;;4928720;23;20063;-77
2023/12/03 07:13:03;;;;;;;13.38;5.15;;;-0.90;99.90;;;;;;4897218;29;20072;-78
2023/12/03 07:15:31;;;;;;;13.02;5.57;;;-0.80;99.90;;;;;;4899165;29;20055;-79
2023/12/03 07:18:00;;;;;;;8.30;3.30;;;-0.80;99.90;;;;;;4901864;29;20054;-77
2023/12/03 07:20:28;;;;;;;7.75;3.40;;;-0.80;99.90;;;;;;4902560;29;20067;-77
2023/12/03 07:22:57;;;;;;;10.75;3.80;;;-0.80;99.90;;;;;;4903091;29;20055;-77
2023/12/03 07:25:28;;;;;;;11.88;5.22;;;-0.60;99.90;;;;;;4917766;28;22046;-78
2023/12/03 07:27:57;;;;;;;8.63;3.83;;;-0.60;99.90;;;;;;4909492;29;22049;-77
2023/12/03 07:30:26;;;;;;;14.93;5.70;;;-0.70;99.90;;;;;;4906195;29;20051;-77
2023/12/03 07:32:55;;;;;;;14.43;5.88;;;-1.20;99.90;;;;;;4918431;29;20064;-78
2023/12/03 07:35:24;;;;;;;14.27;7.38;;;-1.20;99.90;;;;;;4910844;29;20080;-76
2023/12/03 07:37:53;;;;;;;16.42;7.05;;;-0.70;99.90;;;;;;4905990;29;20059;-77
2023/12/03 07:40:24;;;;;;;11.30;5.35;;;1.20;99.90;;;;;;4917056;28;20058;-78
2023/12/03 07:42:54;;;;;;;16.02;8.18;;;-0.20;99.90;;;;;;4895000;29;20091;-78
2023/12/03 07:45:23;;;;;;;7.75;3.25;;;-0.40;99.90;;;;;;4895467;29;20104;-77
2023/12/03 07:47:53;;;;;;;14.57;7.55;;;-1.60;99.90;;;;;;4894029;29;20088;-78
2023/12/03 07:50:22;;;;;;;14.63;7.13;;;-0.40;99.90;;;;;;4902434;29;20091;-78
2023/12/03 07:52:51;;;;;;;7.82;3.78;;;1.10;99.90;;;;;;4908094;29;20043;-76
2023/12/03 07:55:20;;;;;;;12.77;7.00;;;-1.40;99.90;;;;;;4903992;29;20056;-76
2023/12/03 07:57:49;;;;;;;8.23;3.30;;;0.10;99.90;;;;;;4910734;29;20044;-76
2023/12/03 08:00:20;;;;;;;32.50;12.98;;;-0.20;99.90;;;;;;4877416;29;20047;-76
2023/12/03 08:02:48;;;;;;;8.10;4.05;;;-0.20;99.90;;;;;;4894551;29;20061;-76
2023/12/03 08:05:17;;;;;;;11.02;5.18;;;-0.20;99.90;;;;;;4872701;29;20439;-77
2023/12/03 08:07:45;;;;;;;10.48;5.50;;;-0.30;99.90;;;;;;4881203;29;20519;-76
2023/12/03 08:10:13;;;;;;;9.95;5.68;;;-0.20;99.90;;;;;;4884378;29;20068;-76
2023/12/03 08:12:42;;;;;;;18.13;12.00;;;-0.30;99.90;;;;;;4889666;29;20063;-76
2023/12/03 08:15:10;;;;;;;13.88;6.63;;;-0.20;99.90;;;;;;4881979;29;20151;-76
2023/12/03 08:17:40;;;;;;;14.70;8.25;;;-0.30;99.90;;;;;;4891563;29;20883;-75
2023/12/03 08:20:10;;;;;;;7.07;3.63;;;-0.30;99.90;;;;;;4896608;29;20135;-77
2023/12/03 08:22:38;;;;;;;8.90;4.10;;;-0.20;99.90;;;;;;4894882;29;20976;-76
2023/12/03 08:25:07;;;;;;;12.10;4.32;;;-0.10;99.90;;;;;;4878806;29;20052;-76
2023/12/03 08:27:40;;;;;;;10.55;3.60;;;-0.20;99.90;;;;;;4881854;29;20056;-76
2023/12/03 08:30:09;;;;;;;10.75;5.25;;;-0.10;99.90;;;;;;4887218;29;20052;-75
2023/12/03 08:32:37;;;;;;;16.90;7.70;;;-0.20;99.90;;;;;;4899710;29;20044;-75
2023/12/03 08:35:08;;;;;;;8.98;5.38;;;-0.10;99.90;;;;;;4898913;29;21255;-77
2023/12/03 08:37:36;;;;;;;10.82;5.32;;;-0.10;99.90;;;;;;4894490;29;20090;-76
2023/12/03 08:40:09;;;;;;;9.20;5.05;;;-0.10;99.90;;;;;;4880294;29;20056;-76
2023/12/03 08:42:39;;;;;;;10.07;4.68;;;-0.20;99.90;;;;;;4880164;29;20059;-76
2023/12/03 08:45:08;;;;;;;10.65;4.65;;;-0.20;99.90;;;;;;4879507;29;20066;-75
2023/12/03 08:47:36;;;;;;;7.60;3.70;;;0.00;99.90;;;;;;4901516;29;20060;-76
2023/12/03 08:50:07;;;;;;;7.93;4.00;;;0.00;99.90;;;;;;4879948;29;20052;-75
2023/12/03 08:52:36;;;;;;;13.35;5.15;;;0.10;99.90;;;;;;4881277;29;20080;-76
2023/12/03 08:55:07;;;;;;;7.10;4.15;;;0.10;99.70;;;;;;4878782;29;20060;-77
2023/12/03 08:57:36;;;;;;;6.88;3.55;;;0.10;99.60;;;;;;4887033;29;20071;-77
2023/12/03 09:00:08;;;;;;;7.88;3.78;;;0.10;99.40;;;;;;4902802;29;20060;-76
2023/12/03 09:02:38;;;;;;;7.00;3.90;;;0.10;99.20;;;;;;4910420;29;20520;-76
2023/12/03 09:05:11;;;;;;;8.65;4.07;;;0.00;98.80;;;;;;4890451;29;20052;-76
2023/12/03 09:07:42;;;;;;;8.43;4.75;;;0.10;99.00;;;;;;4884499;29;20946;-77
2023/12/03 09:10:13;;;;;;;7.50;3.72;;;0.20;99.20;;;;;;4891526;29;20060;-78
2023/12/03 09:12:42;;;;;;;5.97;3.58;;;0.30;98.80;;;;;;4888388;29;22299;-77
2023/12/03 09:15:14;;;;;;;9.25;4.30;;;0.40;98.70;;;;;;4889019;29;20098;-78
2023/12/03 09:17:43;;;;;;;7.40;4.00;;;0.40;98.80;;;;;;4889428;29;20056;-78
2023/12/03 09:20:13;;;;;;;8.30;4.35;;;0.40;98.50;;;;;;4904428;29;20515;-78
2023/12/03 09:22:42;;;;;;;8.93;4.40;;;;;;;;;;4890015;29;20067;-77
2023/12/03 09:25:12;;;;;;;20.13;17.13;;;;;;;;;;4909622;29;20040;-78
2023/12/03 09:27:41;;;;;;;8.38;4.60;;;;;;;;;;4886747;29;20174;-77
2023/12/03 09:30:10;;;;;;;7.93;3.45;;;;;;;;;;4909468;29;20051;-77
2023/12/03 09:32:39;;;;;;;8.23;3.17;;;;;;;;;;4892919;29;20424;-76
2023/12/03 09:35:08;;;;;;;7.28;3.10;;;;;;;;;;4905713;29;20148;-79
2023/12/03 09:37:38;;;;;;;11.52;5.63;;;;;;;;;;4884010;29;20059;-77
2023/12/03 09:40:09;;;;;;;10.07;5.25;;;;;;;;;;4895818;29;20400;-77
2023/12/03 09:42:39;;;;;;;7.88;4.22;;;;;;;;;;4886457;29;20060;-78
2023/12/03 09:45:09;;;;;;;9.95;3.75;;;;;;;;;;4890930;29;20036;-79
2023/12/03 09:47:39;;;;;;;8.77;3.08;;;;;;;;;;4888438;29;20080;-77
2023/12/03 09:50:10;;;;;;;8.30;4.18;;;;;;;;;;4897089;29;20591;-78
2023/12/03 09:52:44;;;;;;;13.18;8.27;;;;;;;;;;4899687;29;20056;-79
2023/12/03 09:55:13;;;;;;;10.20;5.80;;;;;;;;;;4898926;29;20062;-77
2023/12/03 09:57:44;;;;;;;10.02;4.95;;;;;;;;;;4889684;29;20040;-77
2023/12/03 10:00:13;;;;;;;7.93;3.85;;;;;;;;;;4884671;29;20059;-78
2023/12/03 10:02:42;;;;;;;7.20;3.25;;;;;;;;;;4890398;29;22703;-77
2023/12/03 10:05:13;;;;;;;7.60;3.28;;;;;;;;;;4885179;29;20087;-78
2023/12/03 10:07:45;;;;;;;6.75;3.67;;;;;;;;;;4879493;29;20516;-79
2023/12/03 10:10:15;;;;;;;6.38;2.72;;;;;;;;;;4898228;29;20068;-77
2023/12/03 10:12:44;;;;;;;8.60;5.72;;;;;;;;;;4900300;29;20364;-77
2023/12/03 10:15:13;;;;;;;7.00;4.03;;;;;;;;;;4888014;29;20051;-76
2023/12/03 10:17:43;;;;;;;8.48;4.90;;;;;;;;;;4881371;29;20055;-76
2023/12/03 10:20:22;;;;;;;7.30;3.97;;;;;;;;;;4888261;29;20067;-74
2023/12/03 10:22:53;;;;;;;8.80;5.30;;;;;;;;;;4881106;29;20166;-72
2023/12/03 10:25:29;;;;;;;8.20;4.25;;;;;;;;;;4882641;29;20615;-75
2023/12/03 10:27:59;;;;;;;12.07;4.53;;;;;;;;;;4899431;29;22602;-74
2023/12/03 10:30:28;;;;;;;11.05;5.03;;;;;;;;;;4877159;29;20052;-75
2023/12/03 10:32:56;;;;;;;7.03;3.78;;;;;;;;;;4880467;29;20201;-73
2023/12/03 10:35:26;;;;;;;9.77;6.25;;;;;;;;;;4896476;29;23038;-73
2023/12/03 10:37:59;;;;;;;9.73;5.10;;;;;;;;;;4881091;29;20374;-74
2023/12/03 10:40:27;;;;;;;;;;;;;;;;;;4868114;29;20942;-75
2023/12/03 10:42:57;;;;;;;5.50;2.83;;;;;;;;;;4896719;29;20010;-76
2023/12/03 10:45:30;;;;;;;8.68;3.58;;;;;;;;;;4875917;29;20157;-75
2023/12/03 10:48:01;;;;;;;9.27;5.30;;;;;;;;;;4883022;29;20556;-74
2023/12/03 10:50:35;;;;;;;8.52;5.55;;;;;;;;;;4899136;29;20146;-75
2023/12/03 10:53:05;;;;;;;10.50;5.97;;;;;;;;;;4898134;29;20424;-77
2023/12/03 10:55:34;;;;;;;8.77;5.25;;;;;;;;;;4884953;29;20064;-76
2023/12/03 10:58:07;;;;;;;8.75;4.85;;;;;;;;;;4888848;29;20516;-74
2023/12/03 11:00:40;;;;;;;9.25;5.55;;;;;;;;;;4880361;29;20279;-76
2023/12/03 11:03:15;;;;;;;8.70;3.88;;;;;;;;;;4880866;29;20052;-75
2023/12/03 11:05:48;;;;;;;10.27;5.53;;;;;;;;;;4891709;28;20070;-74
2023/12/03 11:08:20;;;;;;;8.43;4.00;;;;;;;;;;4881060;29;20056;-74
2023/12/03 11:10:50;;;;;;;9.70;3.67;;;;;;;;;;4865466;29;20151;-74
2023/12/03 11:13:22;;;;;;;12.50;6.97;;;;;;;;;;4876289;29;20084;-74
2023/12/03 11:16:04;;;;;;;35.80;15.85;;;;;;;;;;4885955;29;20467;-75
2023/12/03 11:18:56;;;;;;;13.07;6.05;;;;;;;;;;4894133;29;20052;-73
2023/12/03 11:21:33;;;;;;;7.90;4.80;;;;;;;;;;4876983;29;20056;-73
2023/12/03 11:24:13;;;;;;;6.97;3.60;;;;;;;;;;4887540;29;20067;-77
2023/12/03 11:26:45;;;;;;;8.20;4.72;;;;;;;;;;4888374;29;20048;-75
2023/12/03 11:29:14;;;;;;;5.40;3.03;;;;;;;;;;4887711;29;20051;-76
2023/12/03 11:31:46;;;;;;;8.38;4.32;;;;;;;;;;4883352;29;20044;-74
2023/12/03 11:34:17;;;;;;;6.35;3.60;;;;;;;;;;4893830;29;20848;-75
2023/12/03 11:37:01;;;;;;;10.02;6.20;;;;;;;;;;4892367;29;20051;-77
2023/12/03 11:39:43;;;;;;;8.50;3.83;;;;;;;;;;4893389;29;20066;-75
2023/12/03 11:42:13;;;;;;;7.60;4.75;;;;;;;;;;4906612;29;20087;-75
2023/12/03 11:44:42;;;;;;;9.90;4.90;;;;;;;;;;4895186;29;20087;-74
2023/12/03 11:47:12;;;;;;;8.25;4.97;;;;;;;;;;4875124;29;20065;-74
2023/12/03 11:49:42;;;;;;;10.68;5.15;;;;;;;;;;4892660;29;20715;-73
2023/12/03 11:52:15;;;;;;;9.68;6.30;;;;;;;;;;4891111;29;20095;-74
2023/12/03 11:54:54;;;;;;;9.75;5.28;;;;;;;;;;4893824;29;20138;-74
2023/12/03 11:57:25;;;;;;;8.50;5.18;;;;;;;;;;4903587;29;20759;-75
2023/12/03 12:00:17;;;;;;;10.77;5.22;;;;;;;;;;4842681;29;20060;-75
2023/12/03 12:02:46;;;;;;;9.05;4.38;;;;;;;;;;4844861;29;20091;-74
2023/12/03 12:05:19;;;;;;;6.50;3.85;;;;;;;;;;4865014;29;20113;-76
2023/12/03 12:07:58;;;;;;;7.50;4.18;;;;;;;;;;4866923;29;20532;-77
2023/12/03 12:10:34;;;;;;;9.15;4.93;;;;;;;;;;4876200;29;20057;-75
2023/12/03 12:13:06;;;;;;;7.57;3.92;;;;;;;;;;4867089;29;20339;-76
2023/12/03 12:15:37;;;;;;;7.03;3.80;;;;;;;;;;4851596;29;20068;-76
2023/12/03 12:18:10;;;;;;;7.78;4.90;;;;;;;;;;4862509;29;22619;-74
2023/12/03 12:20:42;;;;;;;8.18;4.68;;;;;;;;;;4887692;29;20409;-76
2023/12/03 12:23:13;;;;;;;8.93;4.65;;;;;;;;;;4893268;29;20202;-77
2023/12/03 12:25:44;;;;;;;10.95;5.07;;;;;;;;;;4891591;29;20055;-75
2023/12/03 12:28:16;;;;;;;9.82;5.93;;;;;;;;;;4888366;29;20060;-76
2023/12/03 12:30:46;;;;;;;;;;;;;;;;;;4879645;29;20056;-77
2023/12/03 12:33:18;;;;;;;10.65;7.28;;;;;;;;;;4887441;29;19937;-73
2023/12/03 12:35:51;;;;;;;7.25;4.53;;;;;;;;;;4874596;29;20056;-76
2023/12/03 12:38:20;;;;;;;10.50;7.25;;;;;;;;;;4893111;29;20976;-75
2023/12/03 12:40:55;;;;;;;12.07;7.07;;;;;;;;;;4885299;29;20052;-74
2023/12/03 12:43:26;;;;;;;9.30;3.92;;;;;;;;;;4889309;29;20066;-75
2023/12/03 12:45:56;;;;;;;26.65;18.30;;;;;;;;;;4898857;29;20060;-74
2023/12/03 12:48:26;;;;;;;13.15;6.20;;;;;;;;;;4907022;29;20172;-74
2023/12/03 12:50:57;;;;;;;7.90;3.15;;;;;;;;;;4877687;29;20526;-75
2023/12/03 12:53:28;;;;;;;10.75;5.43;;;;;;;;;;4887219;29;20058;-74
2023/12/03 12:55:59;;;;;;;8.77;4.85;;;;;;;;;;4882763;29;20055;-74
2023/12/03 12:58:33;;;;;;;20.20;11.93;;;;;;;;;;4905082;29;20721;-76
2023/12/03 13:01:04;;;;;;;9.07;6.07;;;;;;;;;;4887428;29;20052;-74
2023/12/03 13:03:35;;;;;;;6.63;4.10;;;;;;;;;;4911261;29;20052;-73
2023/12/03 13:06:07;;;;;;;9.05;6.75;;;;;;;;;;4912623;29;20066;-74
2023/12/03 13:08:38;;;;;;;8.30;4.60;;;;;;;;;;4883664;29;20108;-75
2023/12/03 13:11:13;;;;;;;8.05;4.65;;;;;;;;;;4898738;29;20059;-74
2023/12/03 13:13:48;;;;;;;8.20;4.60;;;;;;;;;;4887633;29;20093;-76
2023/12/03 13:16:19;;;;;;;9.15;5.00;;;;;;;;;;4848875;29;20064;-74
2023/12/03 13:18:54;;;;;;;11.38;5.32;;;;;;;;;;4899131;29;20801;-76
2023/12/03 13:21:25;;;;;;;7.68;5.95;;;;;;;;;;4884683;29;22530;-74
2023/12/03 13:23:57;;;;;;;9.80;5.63;;;;;;;;;;4878952;29;20059;-75
2023/12/03 13:26:42;;;;;;;11.88;6.35;;;;;;;;;;4893996;29;20820;-73
2023/12/03 13:29:12;;;;;;;12.43;5.43;;;;;;;;;;4879078;29;20139;-75
2023/12/03 13:31:42;;;;;;;11.55;5.75;;;;;;;;;;4880736;29;20066;-75
2023/12/03 13:34:11;;;;;;;7.07;3.83;;;;;;;;;;4899755;29;20410;-73
2023/12/03 13:36:39;;;;;;;14.52;7.15;;;;;;;;;;4884060;29;20048;-74
2023/12/03 13:39:09;;;;;;;10.43;5.18;;;;;;;;;;4872623;29;20052;-73
2023/12/03 13:41:38;;;;;;;10.25;4.70;;;;;;;;;;4882348;29;22596;-74
2023/12/03 13:44:08;;;;;;;20.20;11.80;;;;;;;;;;4869489;29;20224;-75
2023/12/03 13:46:37;;;;;;;17.27;10.90;;;;;;;;;;4884659;29;20500;-73